Terminal Aerodrome Forecast
Issued by NWS Jacksonville, FL

Home | Current Version | Previous Version | Text Only | Print | Product List | Glossary On
Versions: 1 2 3 4 5 6 7 8 9 10 11 12 13 14 15 16 17 18 19 20 21 22
000
FTUS42 KJAX 041120
TAFGNV
TAF
KGNV 041120Z 0412/0512 31003KT P6SM BKN250
     FM041300 32005KT P6SM SCT030 BKN250
     FM042000 35006KT P6SM VCTS BKN040CB BKN250
     FM050000 23004KT P6SM VCSH SCT040 BKN250
     FM050600 00000KT P6SM FEW030 SCT250=

USA.gov is the U.S. government's official web portal to all federal, state and local government web resources and services.